createdAt,value
2018-04-16T00:00:44.802Z,998.4
2018-04-16T00:01:46.193Z,998.4
2018-04-16T00:02:47.586Z,998.3
2018-04-16T00:03:48.972Z,998.3
2018-04-16T00:04:50.361Z,998.3
2018-04-16T00:05:51.750Z,998.3
2018-04-16T00:06:53.137Z,998.3
2018-04-16T00:07:54.528Z,998.3
2018-04-16T00:08:55.918Z,998.3
2018-04-16T00:09:57.311Z,998.3
2018-04-16T00:10:58.696Z,998.3
2018-04-16T00:12:00.087Z,998.3
2018-04-16T00:13:01.476Z,998.3
2018-04-16T00:14:02.861Z,998.3
2018-04-16T00:15:04.251Z,998.3
2018-04-16T00:16:05.642Z,998.4
2018-04-16T00:17:07.031Z,998.4
2018-04-16T00:18:08.423Z,998.4
2018-04-16T00:19:09.816Z,998.4
2018-04-16T00:20:11.200Z,998.4
2018-04-16T00:21:12.603Z,998.4
2018-04-16T00:22:13.992Z,998.4
2018-04-16T00:23:15.381Z,998.4
2018-04-16T00:24:16.774Z,998.4
2018-04-16T00:25:18.162Z,998.4
2018-04-16T00:26:19.549Z,998.3
2018-04-16T00:27:20.938Z,998.4
2018-04-16T00:28:22.325Z,998.3
2018-04-16T00:29:23.718Z,998.4
2018-04-16T00:30:25.104Z,998.4
2018-04-16T00:31:26.502Z,998.4
2018-04-16T00:32:27.885Z,998.4
2018-04-16T00:33:29.272Z,998.4
2018-04-16T00:34:30.656Z,998.4
2018-04-16T00:35:32.048Z,998.5
2018-04-16T00:36:33.432Z,998.5
2018-04-16T00:37:34.821Z,998.5
2018-04-16T00:38:36.216Z,998.4
2018-04-16T00:39:37.601Z,998.5
2018-04-16T00:40:38.992Z,998.4
2018-04-16T00:41:40.383Z,998.4
2018-04-16T00:42:41.771Z,998.5
2018-04-16T00:43:43.160Z,998.5
2018-04-16T00:44:44.579Z,998.5
2018-04-16T00:45:45.972Z,998.5
2018-04-16T00:46:47.360Z,998.5
2018-04-16T00:47:48.749Z,998.5
2018-04-16T00:48:50.138Z,998.5
2018-04-16T00:49:51.536Z,998.5
2018-04-16T00:50:52.952Z,998.5
2018-04-16T00:51:54.345Z,998.5
2018-04-16T00:52:55.735Z,998.5
2018-04-16T00:53:57.127Z,998.5
2018-04-16T00:54:58.520Z,998.5
2018-04-16T00:55:59.908Z,998.5
2018-04-16T00:57:01.312Z,998.5
2018-04-16T00:58:02.691Z,998.5
2018-04-16T00:59:04.097Z,998.5
2018-04-16T01:00:05.497Z,998.5
2018-04-16T01:01:06.888Z,998.5
2018-04-16T01:02:08.276Z,998.5
2018-04-16T01:03:09.670Z,998.5
2018-04-16T01:04:11.060Z,998.5
2018-04-16T01:05:12.450Z,998.6
2018-04-16T01:06:13.843Z,998.6
2018-04-16T01:07:15.233Z,998.6
2018-04-16T01:08:16.623Z,998.6
2018-04-16T01:09:18.013Z,998.6
2018-04-16T01:10:19.398Z,998.6
2018-04-16T01:11:20.785Z,998.6
2018-04-16T01:12:22.173Z,998.6
2018-04-16T01:13:23.570Z,998.6
2018-04-16T01:14:24.959Z,998.6
2018-04-16T01:15:26.346Z,998.6
2018-04-16T01:16:27.734Z,998.6
2018-04-16T01:17:29.125Z,998.6
2018-04-16T01:18:30.511Z,998.6
2018-04-16T01:19:31.906Z,998.6
2018-04-16T01:20:33.297Z,998.7
2018-04-16T01:21:34.687Z,998.6
2018-04-16T01:22:36.106Z,998.6
2018-04-16T01:23:37.495Z,998.7
2018-04-16T01:24:38.884Z,998.6
2018-04-16T01:25:40.272Z,998.7
2018-04-16T01:26:41.663Z,998.7
2018-04-16T01:27:43.055Z,998.7
2018-04-16T01:28:44.448Z,998.8
2018-04-16T01:29:45.838Z,998.8
2018-04-16T01:30:47.222Z,998.8
2018-04-16T01:31:48.612Z,998.8
2018-04-16T01:32:50.002Z,998.8
2018-04-16T01:33:51.514Z,998.8
2018-04-16T01:34:52.920Z,998.8
2018-04-16T01:35:54.312Z,998.7
2018-04-16T01:36:55.698Z,998.7
2018-04-16T01:37:57.090Z,998.7
2018-04-16T01:38:58.475Z,998.7
2018-04-16T01:39:59.863Z,998.7
2018-04-16T01:41:01.253Z,998.7
2018-04-16T01:42:02.643Z,998.7
2018-04-16T01:43:04.036Z,998.7
2018-04-16T01:44:05.426Z,998.7
2018-04-16T01:45:06.813Z,998.7
2018-04-16T01:46:08.204Z,998.6
2018-04-16T01:47:09.592Z,998.7
2018-04-16T01:48:10.985Z,998.7
2018-04-16T01:49:12.375Z,998.7
2018-04-16T01:50:13.764Z,998.8
2018-04-16T01:51:15.158Z,998.8
2018-04-16T01:52:16.545Z,998.8
2018-04-16T01:53:17.933Z,998.8
2018-04-16T01:54:19.320Z,998.8
2018-04-16T01:55:20.712Z,998.8
2018-04-16T01:56:22.101Z,998.8
2018-04-16T01:57:23.489Z,998.7
2018-04-16T01:58:24.888Z,998.8
2018-04-16T01:59:26.275Z,998.8
2018-04-16T02:00:27.664Z,998.8
2018-04-16T02:01:29.052Z,998.8
2018-04-16T02:02:30.441Z,998.8
2018-04-16T02:03:31.831Z,998.8
2018-04-16T02:04:33.221Z,998.8
2018-04-16T02:05:34.614Z,998.8
2018-04-16T02:06:36.017Z,998.9
2018-04-16T02:07:37.391Z,998.9
2018-04-16T02:08:38.778Z,998.9
2018-04-16T02:09:40.167Z,999.0
2018-04-16T02:10:41.554Z,998.9
2018-04-16T02:11:42.942Z,999.0
2018-04-16T02:12:44.331Z,999.0
2018-04-16T02:13:45.718Z,999.0
2018-04-16T02:14:47.106Z,999.0
2018-04-16T02:15:48.495Z,999.0
2018-04-16T02:16:49.884Z,999.0
2018-04-16T02:17:51.273Z,999.1
2018-04-16T02:18:52.661Z,999.1
2018-04-16T02:19:54.050Z,999.1
2018-04-16T02:20:55.436Z,999.1
2018-04-16T02:21:56.826Z,999.1
2018-04-16T02:22:58.252Z,999.1
2018-04-16T02:23:59.655Z,999.1
2018-04-16T02:25:01.069Z,999.1
2018-04-16T02:26:02.462Z,999.1
2018-04-16T02:27:03.850Z,999.1
2018-04-16T02:28:05.236Z,999.1
2018-04-16T02:29:06.623Z,999.1
2018-04-16T02:30:08.014Z,999.1
2018-04-16T02:31:09.401Z,999.1
2018-04-16T02:32:10.789Z,999.1
2018-04-16T02:33:12.195Z,999.0
2018-04-16T02:34:13.561Z,999.0
2018-04-16T02:35:14.948Z,999.0
2018-04-16T02:36:16.340Z,999.0
2018-04-16T02:37:17.727Z,999.0
2018-04-16T02:38:19.115Z,999.0
2018-04-16T02:39:20.508Z,999.0
2018-04-16T02:40:21.900Z,999.0
2018-04-16T02:41:23.282Z,999.0
2018-04-16T02:42:24.668Z,999.1
2018-04-16T02:43:26.055Z,999.1
2018-04-16T02:44:27.449Z,999.1
2018-04-16T02:45:28.836Z,999.0
2018-04-16T02:46:30.223Z,999.0
2018-04-16T02:47:31.614Z,999.0
2018-04-16T02:48:33.002Z,999.0
2018-04-16T02:49:34.386Z,999.0
2018-04-16T02:50:35.785Z,999.0
2018-04-16T02:51:37.175Z,999.0
2018-04-16T02:52:38.560Z,999.1
2018-04-16T02:53:39.948Z,999.1
2018-04-16T02:54:41.338Z,999.2
2018-04-16T02:55:42.726Z,999.1
2018-04-16T02:56:44.110Z,999.1
2018-04-16T02:57:45.499Z,999.2
2018-04-16T02:58:46.889Z,999.1
2018-04-16T02:59:48.276Z,999.2
2018-04-16T03:00:49.668Z,999.1
2018-04-16T03:01:51.059Z,999.1
2018-04-16T03:02:52.443Z,999.1
2018-04-16T03:03:53.839Z,999.1
2018-04-16T03:04:55.224Z,999.1
2018-04-16T03:05:56.613Z,999.1
2018-04-16T03:06:58.000Z,999.2
2018-04-16T03:08:01.243Z,999.1
2018-04-16T03:09:02.622Z,999.1
2018-04-16T03:10:04.053Z,999.1
2018-04-16T03:11:05.509Z,999.1
2018-04-16T03:12:06.903Z,999.1
2018-04-16T03:13:08.292Z,999.1
2018-04-16T03:14:09.681Z,999.1
2018-04-16T03:15:11.073Z,999.1
2018-04-16T03:16:12.464Z,999.1
2018-04-16T03:17:13.850Z,999.0
2018-04-16T03:18:15.252Z,999.0
2018-04-16T03:19:16.642Z,999.0
2018-04-16T03:20:18.029Z,999.0
2018-04-16T03:21:19.417Z,999.1
2018-04-16T03:22:20.807Z,999.1
2018-04-16T03:23:22.200Z,999.1
2018-04-16T03:24:23.588Z,999.0
2018-04-16T03:25:24.974Z,999.0
2018-04-16T03:26:26.362Z,999.0
2018-04-16T03:27:27.748Z,999.0
2018-04-16T03:28:29.143Z,999.0
2018-04-16T03:29:30.532Z,999.0
2018-04-16T03:30:31.919Z,999.1
2018-04-16T03:31:33.308Z,999.2
2018-04-16T03:32:34.694Z,999.2
2018-04-16T03:33:36.080Z,999.2
2018-04-16T03:34:37.469Z,999.2
2018-04-16T03:35:38.858Z,999.2
2018-04-16T03:36:40.262Z,999.2
2018-04-16T03:37:41.641Z,999.2
2018-04-16T03:38:43.027Z,999.2
2018-04-16T03:39:44.421Z,999.2
2018-04-16T03:40:45.832Z,999.1
2018-04-16T03:41:47.218Z,999.1
2018-04-16T03:42:48.610Z,999.1
2018-04-16T03:43:50.005Z,999.1
2018-04-16T03:44:51.391Z,999.1
2018-04-16T03:45:52.780Z,999.1
2018-04-16T03:46:54.173Z,999.1
2018-04-16T03:47:55.560Z,999.1
2018-04-16T03:48:56.956Z,999.0
2018-04-16T03:49:58.348Z,999.0
2018-04-16T03:50:59.731Z,999.0
2018-04-16T03:52:01.125Z,999.1
2018-04-16T03:53:02.513Z,999.1
2018-04-16T03:54:03.901Z,999.2
2018-04-16T03:55:05.288Z,999.2
2018-04-16T03:56:06.685Z,999.2
2018-04-16T03:57:08.077Z,999.3
2018-04-16T03:58:09.470Z,999.3
2018-04-16T03:59:10.872Z,999.3
2018-04-16T04:00:12.329Z,999.2
2018-04-16T04:01:13.778Z,999.2
2018-04-16T04:02:15.134Z,999.2
2018-04-16T04:03:16.521Z,999.2
2018-04-16T04:04:17.908Z,999.2
2018-04-16T04:05:19.303Z,999.2
2018-04-16T04:06:20.687Z,999.3
2018-04-16T04:07:22.078Z,999.3
2018-04-16T04:08:23.462Z,999.3
2018-04-16T04:09:24.851Z,999.3
2018-04-16T04:10:26.241Z,999.3
2018-04-16T04:11:27.628Z,999.3
2018-04-16T04:12:29.017Z,999.3
2018-04-16T04:13:30.408Z,999.4
2018-04-16T04:14:31.796Z,999.4
2018-04-16T04:15:33.191Z,999.4
2018-04-16T04:16:34.579Z,999.4
2018-04-16T04:17:35.968Z,999.4
2018-04-16T04:18:37.360Z,999.4
2018-04-16T04:19:38.753Z,999.4
2018-04-16T04:20:40.141Z,999.5
2018-04-16T04:21:41.528Z,999.5
2018-04-16T04:22:42.916Z,999.5
2018-04-16T04:23:44.302Z,999.5
2018-04-16T04:24:45.693Z,999.5
2018-04-16T04:25:47.087Z,999.5
2018-04-16T04:26:48.476Z,999.5
2018-04-16T04:27:49.871Z,999.5
2018-04-16T04:28:51.256Z,999.5
2018-04-16T04:29:52.725Z,999.5
2018-04-16T04:30:54.117Z,999.6
2018-04-16T04:31:55.505Z,999.6
2018-04-16T04:32:56.922Z,999.6
2018-04-16T04:33:58.314Z,999.6
2018-04-16T04:34:59.713Z,999.7
2018-04-16T04:36:01.176Z,999.6
2018-04-16T04:37:02.565Z,999.6
2018-04-16T04:38:03.956Z,999.6
2018-04-16T04:39:05.358Z,999.6
2018-04-16T04:40:06.748Z,999.6
2018-04-16T04:41:08.137Z,999.6
2018-04-16T04:42:09.530Z,999.6
2018-04-16T04:43:10.920Z,999.6
2018-04-16T04:44:12.310Z,999.6
2018-04-16T04:45:13.705Z,999.6
2018-04-16T04:46:15.087Z,999.6
2018-04-16T04:47:16.485Z,999.6
2018-04-16T04:48:17.886Z,999.6
2018-04-16T04:49:19.383Z,999.6
2018-04-16T04:50:20.799Z,999.7
2018-04-16T04:51:22.193Z,999.7
2018-04-16T04:52:23.585Z,999.7
2018-04-16T04:53:24.975Z,999.7
2018-04-16T04:54:26.367Z,999.7
2018-04-16T04:55:27.761Z,999.7
2018-04-16T04:56:29.151Z,999.8
2018-04-16T04:57:30.544Z,999.8
2018-04-16T04:58:31.937Z,999.8
2018-04-16T04:59:33.328Z,999.8
2018-04-16T05:00:34.716Z,999.8
2018-04-16T05:01:36.117Z,999.8
2018-04-16T05:02:37.512Z,999.8
2018-04-16T05:03:38.909Z,999.8
2018-04-16T05:04:40.299Z,999.8
2018-04-16T05:05:41.689Z,999.9
2018-04-16T05:06:43.092Z,999.8
2018-04-16T05:07:44.480Z,999.8
2018-04-16T05:08:45.896Z,999.7
2018-04-16T05:09:47.287Z,999.8
2018-04-16T05:10:48.681Z,999.8
2018-04-16T05:11:50.071Z,999.7
2018-04-16T05:12:51.466Z,999.7
2018-04-16T05:13:52.906Z,999.8
2018-04-16T05:14:54.251Z,999.8
2018-04-16T05:15:55.648Z,999.8
2018-04-16T05:16:57.037Z,999.9
2018-04-16T05:17:58.432Z,999.8
2018-04-16T05:18:59.824Z,999.8
2018-04-16T05:20:01.219Z,999.9
2018-04-16T05:21:02.609Z,999.9
2018-04-16T05:22:04.000Z,999.9
2018-04-16T05:23:05.392Z,999.9
2018-04-16T05:24:06.786Z,999.9
2018-04-16T05:25:08.177Z,999.9
2018-04-16T05:26:09.568Z,999.9
2018-04-16T05:27:10.963Z,999.9
2018-04-16T05:28:14.071Z,999.9
2018-04-16T05:29:15.472Z,1000.0
2018-04-16T05:30:16.863Z,999.9
2018-04-16T05:31:18.259Z,999.9
2018-04-16T05:32:19.655Z,999.9
2018-04-16T05:33:21.049Z,999.9
2018-04-16T05:34:22.443Z,999.9
2018-04-16T05:35:23.923Z,999.9
2018-04-16T05:36:25.362Z,999.9
2018-04-16T05:37:26.782Z,999.9
2018-04-16T05:38:28.176Z,1000.0
2018-04-16T05:39:29.571Z,999.9
2018-04-16T05:40:30.961Z,999.9
2018-04-16T05:41:32.353Z,1000.0
2018-04-16T05:42:33.802Z,1000.0
2018-04-16T05:43:35.137Z,1000.1
2018-04-16T05:44:36.533Z,1000.1
2018-04-16T05:45:37.924Z,1000.1
2018-04-16T05:46:39.318Z,1000.1
2018-04-16T05:47:40.709Z,1000.2
2018-04-16T05:48:42.100Z,1000.2
2018-04-16T05:49:43.494Z,1000.2
2018-04-16T05:50:44.885Z,1000.2
2018-04-16T05:51:46.280Z,1000.2
2018-04-16T05:52:47.672Z,1000.2
2018-04-16T05:53:49.076Z,1000.2
2018-04-16T05:54:50.461Z,1000.2
2018-04-16T05:55:51.856Z,1000.3
2018-04-16T05:56:53.250Z,1000.3
2018-04-16T05:57:54.642Z,1000.3
2018-04-16T05:58:56.046Z,1000.4
2018-04-16T05:59:57.441Z,1000.4
2018-04-16T06:00:58.837Z,1000.4
2018-04-16T06:02:00.232Z,1000.5
2018-04-16T06:03:01.624Z,1000.4
2018-04-16T06:04:03.021Z,1000.5
2018-04-16T06:05:04.424Z,1000.5
2018-04-16T06:06:05.811Z,1000.5
2018-04-16T06:07:07.205Z,1000.5
2018-04-16T06:08:08.606Z,1000.5
2018-04-16T06:09:09.993Z,1000.5
2018-04-16T06:10:11.394Z,1000.6
2018-04-16T06:11:12.797Z,1000.5
2018-04-16T06:12:14.193Z,1000.6
2018-04-16T06:13:15.588Z,1000.6
2018-04-16T06:14:16.985Z,1000.6
2018-04-16T06:15:18.394Z,1000.6
2018-04-16T06:16:19.791Z,1000.6
2018-04-16T06:17:21.185Z,1000.6
2018-04-16T06:18:22.580Z,1000.6
2018-04-16T06:19:23.976Z,1000.6
2018-04-16T06:20:25.372Z,1000.6
2018-04-16T06:21:26.766Z,1000.6
2018-04-16T06:22:28.164Z,1000.7
2018-04-16T06:23:29.557Z,1000.7
2018-04-16T06:24:30.967Z,1000.7
2018-04-16T06:25:32.418Z,1000.8
2018-04-16T06:26:33.825Z,1000.8
2018-04-16T06:27:35.217Z,1000.8
2018-04-16T06:28:36.611Z,1000.8
2018-04-16T06:29:38.008Z,1000.8
2018-04-16T06:30:39.401Z,1000.8
2018-04-16T06:31:40.792Z,1000.8
2018-04-16T06:32:42.189Z,1000.8
2018-04-16T06:33:43.587Z,1000.9
2018-04-16T06:34:44.980Z,1000.8
2018-04-16T06:35:46.375Z,1000.9
2018-04-16T06:36:47.779Z,1000.9
2018-04-16T06:37:49.164Z,1000.8
2018-04-16T06:38:50.565Z,1000.8
2018-04-16T06:39:51.962Z,1000.8
2018-04-16T06:40:53.356Z,1000.9
2018-04-16T06:41:54.750Z,1000.9
2018-04-16T06:42:56.146Z,1000.9
2018-04-16T06:43:57.543Z,1000.8
2018-04-16T06:44:58.937Z,1000.9
2018-04-16T06:46:00.332Z,1000.9
2018-04-16T06:47:01.745Z,1000.8
2018-04-16T06:48:03.125Z,1000.8
2018-04-16T06:49:04.517Z,1000.9
2018-04-16T06:50:05.912Z,1000.9
2018-04-16T06:51:07.310Z,1000.9
2018-04-16T06:52:08.706Z,1000.9
2018-04-16T06:53:10.153Z,1000.9
2018-04-16T06:54:11.498Z,1000.9
2018-04-16T06:55:12.892Z,1000.9
2018-04-16T06:56:14.291Z,1000.9
2018-04-16T06:57:15.686Z,1000.9
2018-04-16T06:58:17.094Z,1000.9
2018-04-16T06:59:18.500Z,1000.9
2018-04-16T07:00:19.890Z,1000.9
2018-04-16T07:01:21.305Z,1001.0
2018-04-16T07:02:22.706Z,1000.9
2018-04-16T07:03:24.087Z,1001.0
2018-04-16T07:04:25.488Z,1001.0
2018-04-16T07:05:26.887Z,1001.0
2018-04-16T07:06:28.280Z,1001.0
2018-04-16T07:07:29.673Z,1001.0
2018-04-16T07:08:31.131Z,1001.0
2018-04-16T07:09:32.519Z,1001.1
2018-04-16T07:10:33.919Z,1001.0
2018-04-16T07:11:35.330Z,1001.0
2018-04-16T07:12:36.728Z,1001.0
2018-04-16T07:13:38.140Z,1001.0
2018-04-16T07:14:39.554Z,1001.0
2018-04-16T07:15:40.958Z,1001.0
2018-04-16T07:16:42.352Z,1001.1
2018-04-16T07:17:43.748Z,1001.1
2018-04-16T07:18:45.143Z,1001.1
2018-04-16T07:19:46.547Z,1001.1
2018-04-16T07:20:47.942Z,1001.1
2018-04-16T07:21:49.343Z,1001.2
2018-04-16T07:22:50.733Z,1001.2
2018-04-16T07:23:52.134Z,1001.2
2018-04-16T07:24:53.534Z,1001.1
2018-04-16T07:25:54.933Z,1001.2
2018-04-16T07:26:56.359Z,1001.2
2018-04-16T07:27:57.751Z,1001.2
2018-04-16T07:28:59.146Z,1001.2
2018-04-16T07:30:00.544Z,1001.2
2018-04-16T07:31:01.942Z,1001.3
2018-04-16T07:32:03.338Z,1001.3
2018-04-16T07:33:04.733Z,1001.3
2018-04-16T07:34:06.133Z,1001.4
2018-04-16T07:35:07.524Z,1001.4
2018-04-16T07:36:08.920Z,1001.4
2018-04-16T07:37:10.317Z,1001.4
2018-04-16T07:38:11.716Z,1001.4
2018-04-16T07:39:13.124Z,1001.4
2018-04-16T07:40:14.524Z,1001.4
2018-04-16T07:41:15.920Z,1001.5
2018-04-16T07:42:17.332Z,1001.4
2018-04-16T07:43:18.731Z,1001.5
2018-04-16T07:44:20.128Z,1001.5
2018-04-16T07:45:21.528Z,1001.5
2018-04-16T07:46:22.928Z,1001.5
2018-04-16T07:47:24.333Z,1001.5
2018-04-16T07:48:25.729Z,1001.5
2018-04-16T07:49:27.123Z,1001.5
2018-04-16T07:50:28.522Z,1001.6
2018-04-16T07:51:29.921Z,1001.6
2018-04-16T07:52:31.317Z,1001.6
2018-04-16T07:53:32.714Z,1001.6
2018-04-16T07:54:34.110Z,1001.6
2018-04-16T07:55:35.505Z,1001.6
2018-04-16T07:56:36.899Z,1001.6
2018-04-16T07:57:38.296Z,1001.6
2018-04-16T07:58:39.692Z,1001.6
2018-04-16T07:59:41.088Z,1001.7
2018-04-16T08:00:42.482Z,1001.7
2018-04-16T08:01:43.882Z,1001.7
2018-04-16T08:02:45.377Z,1001.7
2018-04-16T08:03:46.769Z,1001.7
2018-04-16T08:04:48.164Z,1001.7
2018-04-16T08:05:49.560Z,1001.7
2018-04-16T08:06:50.959Z,1001.8
2018-04-16T08:07:52.361Z,1001.8
2018-04-16T08:08:53.751Z,1001.8
2018-04-16T08:09:55.152Z,1001.8
2018-04-16T08:10:56.558Z,1001.8
2018-04-16T08:11:57.954Z,1001.9
2018-04-16T08:12:59.355Z,1001.8
2018-04-16T08:14:00.780Z,1001.8
2018-04-16T08:15:02.175Z,1001.9
2018-04-16T08:16:03.599Z,1001.9
2018-04-16T08:17:04.980Z,1001.9
2018-04-16T08:18:06.375Z,1001.9
2018-04-16T08:19:07.771Z,1001.9
2018-04-16T08:20:09.166Z,1001.9
2018-04-16T08:21:10.565Z,1001.9
2018-04-16T08:22:12.001Z,1001.9
2018-04-16T08:23:13.361Z,1001.9
2018-04-16T08:24:14.758Z,1001.9
2018-04-16T08:25:16.174Z,1001.9
2018-04-16T08:26:17.573Z,1001.9
2018-04-16T08:27:18.966Z,1001.9
2018-04-16T08:28:20.363Z,1001.9
2018-04-16T08:29:21.759Z,1002.0
2018-04-16T08:30:23.160Z,1001.9
2018-04-16T08:31:24.560Z,1001.9
2018-04-16T08:32:25.967Z,1001.8
2018-04-16T08:33:27.360Z,1001.9
2018-04-16T08:34:28.761Z,1001.9
2018-04-16T08:35:30.157Z,1001.8
2018-04-16T08:36:31.557Z,1001.9
2018-04-16T08:37:32.956Z,1001.8
2018-04-16T08:38:34.357Z,1001.9
2018-04-16T08:39:35.752Z,1001.8
2018-04-16T08:40:37.148Z,1001.9
2018-04-16T08:41:38.549Z,1001.9
2018-04-16T08:42:39.946Z,1002.0
2018-04-16T08:43:41.349Z,1001.9
2018-04-16T08:44:42.748Z,1001.9
2018-04-16T08:45:44.150Z,1002.0
2018-04-16T08:46:45.548Z,1002.0
2018-04-16T08:47:46.938Z,1002.0
2018-04-16T08:48:48.343Z,1002.0
2018-04-16T08:49:49.750Z,1002.0
2018-04-16T08:50:51.206Z,1002.0
2018-04-16T08:51:52.605Z,1002.0
2018-04-16T08:52:54.008Z,1002.0
2018-04-16T08:53:55.403Z,1002.0
2018-04-16T08:54:56.805Z,1002.1
2018-04-16T08:55:58.238Z,1002.0
2018-04-16T08:56:59.634Z,1002.1
2018-04-16T08:58:01.035Z,1002.1
2018-04-16T08:59:02.438Z,1002.2
2018-04-16T09:00:03.852Z,1002.2
2018-04-16T09:01:05.251Z,1002.1
2018-04-16T09:02:06.647Z,1002.2
2018-04-16T09:03:08.046Z,1002.2
2018-04-16T09:04:09.446Z,1002.2
2018-04-16T09:05:10.846Z,1002.2
2018-04-16T09:06:12.244Z,1002.2
2018-04-16T09:07:13.642Z,1002.2
2018-04-16T09:08:15.041Z,1002.3
2018-04-16T09:09:16.440Z,1002.2
2018-04-16T09:10:17.838Z,1002.2
2018-04-16T09:11:19.280Z,1002.2
2018-04-16T09:12:20.666Z,1002.3
2018-04-16T09:13:22.063Z,1002.2
2018-04-16T09:14:23.464Z,1002.3
2018-04-16T09:15:24.866Z,1002.3
2018-04-16T09:16:26.257Z,1002.4
2018-04-16T09:17:27.655Z,1002.4
2018-04-16T09:18:29.053Z,1002.4
2018-04-16T09:19:30.454Z,1002.4
2018-04-16T09:20:31.851Z,1002.4
2018-04-16T09:21:33.250Z,1002.5
2018-04-16T09:22:34.649Z,1002.5
2018-04-16T09:23:36.055Z,1002.5
2018-04-16T09:24:37.453Z,1002.5
2018-04-16T09:25:38.851Z,1002.5
2018-04-16T09:26:40.250Z,1002.5
2018-04-16T09:27:41.649Z,1002.5
2018-04-16T09:28:43.050Z,1002.5
2018-04-16T09:29:44.452Z,1002.5
2018-04-16T09:30:45.852Z,1002.5
2018-04-16T09:31:47.240Z,1002.5
2018-04-16T09:32:48.641Z,1002.5
2018-04-16T09:33:50.045Z,1002.5
2018-04-16T09:34:51.447Z,1002.5
2018-04-16T09:35:52.851Z,1002.5
2018-04-16T09:36:54.248Z,1002.6
2018-04-16T09:37:55.781Z,1002.5
2018-04-16T09:38:57.181Z,1002.6
2018-04-16T09:39:58.581Z,1002.6
2018-04-16T09:40:59.983Z,1002.6
2018-04-16T09:42:01.387Z,1002.6
2018-04-16T09:43:02.788Z,1002.6
2018-04-16T09:44:04.183Z,1002.6
2018-04-16T09:45:05.580Z,1002.6
2018-04-16T09:46:06.980Z,1002.6
2018-04-16T09:47:08.384Z,1002.6
2018-04-16T09:48:09.787Z,1002.6
2018-04-16T09:49:11.190Z,1002.7
2018-04-16T09:50:12.591Z,1002.6
2018-04-16T09:51:13.990Z,1002.6
2018-04-16T09:52:15.420Z,1002.6
2018-04-16T09:53:16.828Z,1002.6
2018-04-16T09:54:18.240Z,1002.7
2018-04-16T09:55:19.630Z,1002.7
2018-04-16T09:56:21.030Z,1002.7
2018-04-16T09:57:22.432Z,1002.7
2018-04-16T09:58:23.832Z,1002.7
2018-04-16T09:59:25.224Z,1002.7
2018-04-16T10:00:26.619Z,1002.7
2018-04-16T10:01:28.018Z,1002.7
2018-04-16T10:02:29.418Z,1002.7
2018-04-16T10:03:30.816Z,1002.7
2018-04-16T10:04:32.218Z,1002.7
2018-04-16T10:05:33.618Z,1002.7
2018-04-16T10:06:35.015Z,1002.7
2018-04-16T10:07:36.412Z,1002.7
2018-04-16T10:08:37.810Z,1002.7
2018-04-16T10:09:39.214Z,1002.7
2018-04-16T10:10:40.613Z,1002.7
2018-04-16T10:11:42.019Z,1002.7
2018-04-16T10:12:43.420Z,1002.7
2018-04-16T10:13:44.818Z,1002.7
2018-04-16T10:14:46.220Z,1002.7
2018-04-16T10:15:47.622Z,1002.7
2018-04-16T10:16:49.023Z,1002.7
2018-04-16T10:17:50.423Z,1002.7
2018-04-16T10:18:51.824Z,1002.7
2018-04-16T10:19:53.227Z,1002.7
2018-04-16T10:20:54.623Z,1002.7
2018-04-16T10:21:56.023Z,1002.7
2018-04-16T10:22:57.432Z,1002.7
2018-04-16T10:23:58.832Z,1002.7
2018-04-16T10:25:00.456Z,1002.7
2018-04-16T10:26:01.878Z,1002.7
2018-04-16T10:27:03.353Z,1002.8
2018-04-16T10:28:04.793Z,1002.8
2018-04-16T10:29:06.205Z,1002.8
2018-04-16T10:30:07.616Z,1002.8
2018-04-16T10:31:09.022Z,1002.8
2018-04-16T10:32:10.434Z,1002.8
2018-04-16T10:33:11.838Z,1002.8
2018-04-16T10:34:13.285Z,1002.8
2018-04-16T10:35:14.707Z,1002.8
2018-04-16T10:36:16.101Z,1002.8
2018-04-16T10:37:17.501Z,1002.8
2018-04-16T10:38:18.905Z,1002.8
2018-04-16T10:39:20.314Z,1002.8
2018-04-16T10:40:21.719Z,1002.8
2018-04-16T10:41:23.118Z,1002.8
2018-04-16T10:42:24.521Z,1002.8
2018-04-16T10:43:25.924Z,1002.8
2018-04-16T10:44:27.331Z,1002.9
2018-04-16T10:45:28.732Z,1002.8
2018-04-16T10:46:30.132Z,1002.9
2018-04-16T10:47:31.542Z,1002.9
2018-04-16T10:48:32.938Z,1002.8
2018-04-16T10:49:34.341Z,1002.9
2018-04-16T10:50:35.743Z,1002.8
2018-04-16T10:51:37.145Z,1002.9
2018-04-16T10:52:38.547Z,1002.9
2018-04-16T10:53:39.952Z,1002.8
2018-04-16T10:54:41.353Z,1002.8
2018-04-16T10:55:42.755Z,1002.9
2018-04-16T10:56:44.155Z,1002.8
2018-04-16T10:57:45.554Z,1002.8
2018-04-16T10:58:46.961Z,1002.9
2018-04-16T10:59:48.368Z,1002.9
2018-04-16T11:00:49.778Z,1002.8
2018-04-16T11:01:51.175Z,1002.8
2018-04-16T11:02:52.572Z,1002.8
2018-04-16T11:03:53.976Z,1002.8
2018-04-16T11:04:55.381Z,1002.9
2018-04-16T11:05:56.786Z,1002.9
2018-04-16T11:06:58.191Z,1002.9
2018-04-16T11:07:59.593Z,1002.9
2018-04-16T11:09:00.993Z,1002.9
2018-04-16T11:10:02.398Z,1002.9
2018-04-16T11:11:03.904Z,1002.9
2018-04-16T11:12:05.322Z,1002.9
2018-04-16T11:13:06.727Z,1002.9
2018-04-16T11:14:08.134Z,1002.8
2018-04-16T11:15:09.533Z,1002.7
2018-04-16T11:16:10.935Z,1002.8
2018-04-16T11:17:12.335Z,1002.8
2018-04-16T11:18:13.736Z,1002.8
2018-04-16T11:19:15.142Z,1002.8
2018-04-16T11:20:16.544Z,1002.8
2018-04-16T11:21:17.943Z,1002.8
2018-04-16T11:22:19.351Z,1002.8
2018-04-16T11:23:20.755Z,1002.8
2018-04-16T11:24:22.157Z,1002.8
2018-04-16T11:25:23.560Z,1002.8
2018-04-16T11:26:25.007Z,1002.8
2018-04-16T11:27:26.369Z,1002.9
2018-04-16T11:28:27.773Z,1002.8
2018-04-16T11:29:29.174Z,1002.8
2018-04-16T11:30:30.577Z,1002.8
2018-04-16T11:31:31.980Z,1002.8
2018-04-16T11:32:33.384Z,1002.8
2018-04-16T11:33:34.789Z,1002.8
2018-04-16T11:34:36.192Z,1002.8
2018-04-16T11:35:37.592Z,1002.7
2018-04-16T11:36:38.995Z,1002.8
2018-04-16T11:37:40.403Z,1002.8
2018-04-16T11:38:41.805Z,1002.8
2018-04-16T11:39:43.207Z,1002.8
2018-04-16T11:40:44.619Z,1002.8
2018-04-16T11:41:46.018Z,1002.8
2018-04-16T11:42:47.413Z,1002.8
2018-04-16T11:43:48.816Z,1002.8
2018-04-16T11:44:50.223Z,1002.9
2018-04-16T11:45:51.628Z,1002.9
2018-04-16T11:46:53.030Z,1002.9
2018-04-16T11:47:54.428Z,1002.8
2018-04-16T11:48:55.840Z,1002.9
2018-04-16T11:49:57.244Z,1002.9
2018-04-16T11:50:58.650Z,1002.9
2018-04-16T11:52:00.055Z,1002.9
2018-04-16T11:53:01.454Z,1002.9
2018-04-16T11:54:02.855Z,1003.0
2018-04-16T11:55:04.258Z,1002.9
2018-04-16T11:56:05.662Z,1003.0
2018-04-16T11:57:07.099Z,1002.9
2018-04-16T11:58:08.501Z,1002.9
2018-04-16T11:59:09.908Z,1002.9
2018-04-16T12:00:11.303Z,1002.9
2018-04-16T12:01:12.708Z,1002.9
2018-04-16T12:02:14.116Z,1002.9
2018-04-16T12:03:15.511Z,1002.9
2018-04-16T12:04:16.948Z,1002.9
2018-04-16T12:05:18.333Z,1002.9
2018-04-16T12:06:19.740Z,1002.9
2018-04-16T12:07:21.146Z,1002.9
2018-04-16T12:08:22.546Z,1002.9
2018-04-16T12:09:23.992Z,1002.9
2018-04-16T12:10:25.454Z,1002.9
2018-04-16T12:11:26.804Z,1003.0
2018-04-16T12:12:28.209Z,1002.9
2018-04-16T12:13:29.619Z,1002.9
2018-04-16T12:14:31.026Z,1002.9
2018-04-16T12:15:32.430Z,1002.9
2018-04-16T12:16:33.871Z,1002.9
2018-04-16T12:17:35.237Z,1002.9
2018-04-16T12:18:36.639Z,1002.8
2018-04-16T12:19:38.049Z,1002.8
2018-04-16T12:20:39.455Z,1002.8
2018-04-16T12:21:40.862Z,1002.8
2018-04-16T12:22:42.258Z,1002.9
2018-04-16T12:23:43.660Z,1002.9
2018-04-16T12:24:45.065Z,1002.9
2018-04-16T12:25:46.468Z,1002.9
2018-04-16T12:26:47.875Z,1002.9
2018-04-16T12:27:49.295Z,1002.9
2018-04-16T12:28:50.678Z,1002.8
2018-04-16T12:29:52.082Z,1002.8
2018-04-16T12:30:53.487Z,1002.9
2018-04-16T12:31:54.892Z,1002.9
2018-04-16T12:32:56.300Z,1002.9
2018-04-16T12:33:57.708Z,1002.9
2018-04-16T12:34:59.118Z,1003.0
2018-04-16T12:36:00.519Z,1003.0
2018-04-16T12:37:01.944Z,1003.1
2018-04-16T12:38:03.352Z,1003.0
2018-04-16T12:39:04.805Z,1003.1
2018-04-16T12:40:06.180Z,1003.0
2018-04-16T12:41:07.584Z,1003.1
2018-04-16T12:42:09.037Z,1003.1
2018-04-16T12:43:10.440Z,1003.0
2018-04-16T12:44:11.932Z,1003.0
2018-04-16T12:45:13.353Z,1003.0
2018-04-16T12:46:14.756Z,1003.0
2018-04-16T12:47:16.162Z,1003.0
2018-04-16T12:48:17.569Z,1003.0
2018-04-16T12:49:18.990Z,1003.0
2018-04-16T12:50:20.393Z,1003.0
2018-04-16T12:51:21.802Z,1003.0
2018-04-16T12:52:23.206Z,1003.0
2018-04-16T12:53:24.609Z,1003.0
2018-04-16T12:54:26.014Z,1003.0
2018-04-16T12:55:27.418Z,1003.0
2018-04-16T12:56:28.824Z,1003.0